createdAt,value
2022-10-03T00:03:27.778Z,11.38
2022-10-03T00:08:35.792Z,11.48
2022-10-03T00:13:56.087Z,11.35
2022-10-03T00:19:28.806Z,11.48
2022-10-03T00:24:33.933Z,11.73
2022-10-03T00:29:39.343Z,11.63
2022-10-03T00:35:02.792Z,11.58
2022-10-03T00:40:23.693Z,11.69
2022-10-03T00:46:09.104Z,11.71
2022-10-03T00:51:29.507Z,11.77
2022-10-03T00:56:57.399Z,11.70
2022-10-03T01:02:00.346Z,11.84
2022-10-03T01:07:12.490Z,11.66
2022-10-03T01:12:44.981Z,11.93
2022-10-03T01:18:10.306Z,11.84
2022-10-03T01:23:32.830Z,11.82
2022-10-03T01:29:33.587Z,11.92
2022-10-03T01:34:54.294Z,12.08
2022-10-03T01:40:15.294Z,12.19
2022-10-03T01:45:38.980Z,12.40
2022-10-03T01:50:50.443Z,12.28
2022-10-03T01:56:13.347Z,12.30
2022-10-03T02:01:30.605Z,12.36
2022-10-03T02:06:40.574Z,12.35
2022-10-03T02:11:55.976Z,12.07
2022-10-03T02:17:05.177Z,12.35
2022-10-03T02:22:36.251Z,12.18
2022-10-03T02:28:13.150Z,12.31
2022-10-03T02:33:41.209Z,12.44
2022-10-03T02:39:12.670Z,12.42
2022-10-03T02:44:23.746Z,12.42
2022-10-03T02:49:50.826Z,12.33
2022-10-03T02:55:06.170Z,12.52
2022-10-03T03:00:21.936Z,12.72
2022-10-03T03:05:46.471Z,12.28
2022-10-03T03:11:18.834Z,12.62
2022-10-03T03:16:30.549Z,12.65
2022-10-03T03:21:42.726Z,12.56
2022-10-03T03:26:47.834Z,13.02
2022-10-03T03:32:11.073Z,12.62
2022-10-03T03:37:52.466Z,13.12
2022-10-03T03:43:19.458Z,12.88
2022-10-03T03:48:39.834Z,12.73
2022-10-03T03:53:54.014Z,12.84
2022-10-03T03:59:20.363Z,12.82
2022-10-03T04:04:28.321Z,12.84
2022-10-03T04:09:43.742Z,13.00
2022-10-03T04:15:04.071Z,12.70
2022-10-03T04:20:44.204Z,12.80
2022-10-03T04:26:23.101Z,12.73
2022-10-03T04:31:54.958Z,12.80
2022-10-03T04:37:12.644Z,12.83
2022-10-03T04:42:48.541Z,12.86
2022-10-03T04:48:00.316Z,12.81
2022-10-03T04:53:14.530Z,12.67
2022-10-03T04:58:38.109Z,12.77
2022-10-03T05:03:58.505Z,12.75
2022-10-03T05:09:22.226Z,12.64
2022-10-03T05:14:33.524Z,12.68
2022-10-03T05:19:47.395Z,12.52
2022-10-03T05:24:52.558Z,12.58
2022-10-03T05:30:07.051Z,12.34
2022-10-03T05:35:48.237Z,12.38
2022-10-03T05:40:59.734Z,12.59
2022-10-03T05:46:05.568Z,12.81
2022-10-03T05:51:34.630Z,13.13
2022-10-03T05:56:41.158Z,13.20
2022-10-03T06:01:59.361Z,13.06
2022-10-03T06:07:27.646Z,12.90
2022-10-03T06:12:45.932Z,12.95
2022-10-03T06:18:03.553Z,13.02
2022-10-03T06:23:30.449Z,12.93
2022-10-03T06:28:44.737Z,13.18
2022-10-03T06:34:12.602Z,13.13
2022-10-03T06:39:33.333Z,13.18
2022-10-03T06:44:57.738Z,13.50
2022-10-03T06:50:26.431Z,13.34
2022-10-03T06:56:13.701Z,13.22
2022-10-03T07:01:53.317Z,13.29
2022-10-03T07:07:10.006Z,13.28
2022-10-03T07:12:31.678Z,13.21
2022-10-03T07:17:49.786Z,13.40
2022-10-03T07:23:04.882Z,13.69
2022-10-03T07:28:34.411Z,13.55
2022-10-03T07:34:01.418Z,13.58
2022-10-03T07:39:17.910Z,14.18
2022-10-03T07:44:42.750Z,14.34
2022-10-03T07:50:18.155Z,14.53
2022-10-03T07:55:29.470Z,14.52
2022-10-03T08:01:13.121Z,14.50
2022-10-03T08:06:26.632Z,14.30
2022-10-03T08:11:53.353Z,14.59
2022-10-03T08:17:01.571Z,14.68
2022-10-03T08:22:15.641Z,15.13
2022-10-03T08:27:52.341Z,15.17
2022-10-03T08:32:57.872Z,15.51
2022-10-03T08:38:12.523Z,15.66
2022-10-03T08:43:38.682Z,15.83
2022-10-03T08:48:47.151Z,15.78
2022-10-03T08:54:01.561Z,16.14
2022-10-03T08:59:32.108Z,16.51
2022-10-03T09:04:34.402Z,16.36
2022-10-03T09:09:59.293Z,16.17
2022-10-03T09:15:01.833Z,16.00
2022-10-03T09:20:18.089Z,15.66
2022-10-03T09:25:27.123Z,14.86
2022-10-03T09:30:41.711Z,14.80
2022-10-03T09:36:11.994Z,14.58
2022-10-03T09:41:51.123Z,14.16
2022-10-03T09:47:23.727Z,13.73
2022-10-03T09:52:47.428Z,13.70
2022-10-03T09:58:02.224Z,13.70
2022-10-03T10:03:13.488Z,13.44
2022-10-03T10:08:33.644Z,13.22
2022-10-03T10:14:07.721Z,13.62
2022-10-03T10:19:37.428Z,13.71
2022-10-03T10:25:14.383Z,13.70
2022-10-03T10:30:31.788Z,13.74
2022-10-03T10:35:33.994Z,13.96
2022-10-03T10:40:48.583Z,14.14
2022-10-03T10:46:10.755Z,14.34
2022-10-03T10:51:31.525Z,14.74
2022-10-03T10:57:12.057Z,15.08
2022-10-03T11:02:29.267Z,15.30
2022-10-03T11:07:37.430Z,15.50
2022-10-03T11:13:02.407Z,15.56
2022-10-03T11:18:25.001Z,15.87
2022-10-03T11:23:47.049Z,16.14
2022-10-03T11:29:13.875Z,15.85
2022-10-03T11:34:36.697Z,16.38
2022-10-03T11:40:02.469Z,16.58
2022-10-03T11:45:07.698Z,15.85
2022-10-03T11:50:29.515Z,14.84
2022-10-03T11:55:34.040Z,14.08
2022-10-03T12:00:37.370Z,13.71
2022-10-03T12:06:19.568Z,14.03
2022-10-03T12:11:28.331Z,14.01
2022-10-03T12:17:00.212Z,14.14
2022-10-03T12:22:20.742Z,14.01
2022-10-03T12:27:42.093Z,14.58
2022-10-03T12:33:13.028Z,14.64
2022-10-03T12:38:39.214Z,14.40
2022-10-03T12:44:09.221Z,14.01
2022-10-03T12:49:40.473Z,14.08
2022-10-03T12:54:54.562Z,14.59
2022-10-03T13:00:18.001Z,15.24
2022-10-03T13:05:20.351Z,15.55
2022-10-03T13:10:37.203Z,15.74
2022-10-03T13:15:54.668Z,16.19
2022-10-03T13:21:03.114Z,16.71
2022-10-03T13:26:18.528Z,17.12
2022-10-03T13:31:25.746Z,17.29
2022-10-03T13:36:58.731Z,16.74
2022-10-03T13:42:10.524Z,16.06
2022-10-03T13:47:49.020Z,15.28
2022-10-03T13:53:01.131Z,14.98
2022-10-03T13:58:15.267Z,14.61
2022-10-03T14:04:13.089Z,14.69
2022-10-03T14:09:24.376Z,14.49
2022-10-03T14:14:58.770Z,14.58
2022-10-03T14:20:06.870Z,14.37
2022-10-03T14:25:38.514Z,14.27
2022-10-03T14:31:06.462Z,14.05
2022-10-03T14:36:18.066Z,13.88
2022-10-03T14:41:26.023Z,13.91
2022-10-03T14:46:34.188Z,13.93
2022-10-03T14:51:48.924Z,13.95
2022-10-03T14:56:52.061Z,14.20
2022-10-03T15:01:56.816Z,14.56
2022-10-03T15:07:02.887Z,14.68
2022-10-03T15:12:09.745Z,14.37
2022-10-03T15:17:24.425Z,14.21
2022-10-03T15:22:29.855Z,14.13
2022-10-03T15:27:32.764Z,13.83
2022-10-03T15:32:42.256Z,13.66
2022-10-03T15:37:47.797Z,13.50
2022-10-03T15:42:54.234Z,13.37
2022-10-03T15:48:00.375Z,13.15
2022-10-03T15:53:35.213Z,13.12
2022-10-03T15:58:39.835Z,13.07
2022-10-03T16:03:47.731Z,13.11
2022-10-03T16:09:17.547Z,13.19
2022-10-03T16:14:23.033Z,13.07
2022-10-03T16:19:46.727Z,12.98
2022-10-03T16:25:14.113Z,12.90
2022-10-03T16:30:22.749Z,12.79
2022-10-03T16:35:35.809Z,12.80
2022-10-03T16:40:38.475Z,12.63
2022-10-03T16:45:43.492Z,12.52
2022-10-03T16:50:52.679Z,12.39
2022-10-03T16:56:07.714Z,12.45
2022-10-03T17:01:26.969Z,12.54
2022-10-03T17:06:35.171Z,12.52
2022-10-03T17:11:38.917Z,12.65
2022-10-03T17:16:47.942Z,12.63
2022-10-03T17:21:56.204Z,12.71
2022-10-03T17:27:03.189Z,12.63
2022-10-03T17:32:24.796Z,12.54
2022-10-03T17:37:29.926Z,12.65
2022-10-03T17:42:55.596Z,12.73
2022-10-03T17:48:11.521Z,12.71
2022-10-03T17:53:22.155Z,12.69
2022-10-03T17:58:26.572Z,12.77
2022-10-03T18:03:43.844Z,12.82
2022-10-03T18:08:47.651Z,12.62
2022-10-03T18:14:19.182Z,12.76
2022-10-03T18:19:52.238Z,12.97
2022-10-03T18:25:25.658Z,12.88
2022-10-03T18:30:33.762Z,12.71
2022-10-03T18:35:37.176Z,12.67
2022-10-03T18:40:55.940Z,12.57
2022-10-03T18:46:08.108Z,12.68
2022-10-03T18:51:13.333Z,12.64
2022-10-03T18:56:23.885Z,12.57
2022-10-03T19:01:32.587Z,12.55
2022-10-03T19:06:42.109Z,12.59
2022-10-03T19:11:48.251Z,12.71
2022-10-03T19:17:14.613Z,12.50
2022-10-03T19:22:22.182Z,12.39
2022-10-03T19:27:40.098Z,12.46
2022-10-03T19:32:43.913Z,12.57
2022-10-03T19:37:51.324Z,12.46
2022-10-03T19:42:59.801Z,12.57
2022-10-03T19:48:10.432Z,12.44
2022-10-03T19:53:17.305Z,12.60
2022-10-03T19:58:24.382Z,12.64
2022-10-03T20:03:32.601Z,12.40
2022-10-03T20:09:03.660Z,12.21
2022-10-03T20:14:06.494Z,12.30
2022-10-03T20:19:12.402Z,12.28
2022-10-03T20:24:38.773Z,12.27
2022-10-03T20:29:48.990Z,12.30
2022-10-03T20:34:56.637Z,12.31
2022-10-03T20:40:11.310Z,12.42
2022-10-03T20:45:23.302Z,12.27
2022-10-03T20:50:40.485Z,12.21
2022-10-03T20:55:52.519Z,12.21
2022-10-03T21:01:08.693Z,12.17
2022-10-03T21:06:20.927Z,12.00
2022-10-03T21:11:28.766Z,11.85
2022-10-03T21:16:34.706Z,11.97
2022-10-03T21:21:43.587Z,11.88
2022-10-03T21:26:48.439Z,11.51
2022-10-03T21:32:29.355Z,11.54
2022-10-03T21:37:31.620Z,11.41
2022-10-03T21:42:39.498Z,11.52
2022-10-03T21:47:51.753Z,11.49
2022-10-03T21:52:54.075Z,11.44
2022-10-03T21:58:06.432Z,11.21
2022-10-03T22:03:16.953Z,11.20
2022-10-03T22:08:26.296Z,11.17
2022-10-03T22:13:31.670Z,10.98
2022-10-03T22:18:55.002Z,10.93
2022-10-03T22:24:49.162Z,11.20
2022-10-03T22:30:15.790Z,11.31
2022-10-03T22:35:33.712Z,11.41
2022-10-03T22:40:36.697Z,11.49
2022-10-03T22:45:42.415Z,11.72
2022-10-03T22:50:45.311Z,11.89
2022-10-03T22:55:52.282Z,11.51
2022-10-03T23:00:56.755Z,12.02
2022-10-03T23:06:20.441Z,11.81
2022-10-03T23:11:33.310Z,11.67
2022-10-03T23:16:57.661Z,11.58
2022-10-03T23:22:00.620Z,11.57
2022-10-03T23:27:30.543Z,11.71
2022-10-03T23:32:47.877Z,11.83
2022-10-03T23:37:50.457Z,11.56
2022-10-03T23:43:25.310Z,11.67
2022-10-03T23:48:29.251Z,11.74
2022-10-03T23:53:38.958Z,11.57
2022-10-03T23:58:41.341Z,11.53
